createdAt,value
2018-12-04T00:00:38.083Z,97275.88
2018-12-04T00:05:48.958Z,97280.37
2018-12-04T00:08:25.436Z,97271.45
2018-12-04T00:10:57.714Z,97280.73
2018-12-04T00:13:31.527Z,97278.11
2018-12-04T00:18:36.962Z,97286.47
2018-12-04T00:21:08.942Z,97279.71
2018-12-04T00:23:43.248Z,97285.35
2018-12-04T00:28:48.950Z,97276.47
2018-12-04T00:31:20.737Z,97270.83
2018-12-04T00:33:55.168Z,97269.52
2018-12-04T00:39:04.145Z,97257.81
2018-12-04T00:44:13.837Z,97263.23
2018-12-04T00:46:46.554Z,97272.13
2018-12-04T00:49:18.443Z,97276.20
2018-12-04T00:51:52.757Z,97280.27
2018-12-04T00:56:56.384Z,97286.47
2018-12-04T00:59:28.386Z,97291.52
2018-12-04T01:02:06.281Z,97294.63
2018-12-04T01:04:40.642Z,97303.32
2018-12-04T01:07:13.233Z,97298.92
2018-12-04T01:09:45.013Z,97296.30
2018-12-04T01:12:19.492Z,97309.22
2018-12-04T01:17:22.115Z,97315.69
2018-12-04T01:19:54.118Z,97326.80
2018-12-04T01:25:24.737Z,97337.36
2018-12-04T01:28:02.600Z,97328.73
2018-12-04T01:30:35.006Z,97335.88
2018-12-04T01:33:07.569Z,97356.14
2018-12-04T01:35:42.047Z,97359.31
2018-12-04T01:40:45.905Z,97365.76
2018-12-04T01:43:17.647Z,97369.97
2018-12-04T01:45:50.265Z,97372.88
2018-12-04T01:48:27.972Z,97384.73
2018-12-04T01:51:01.754Z,97389.23
2018-12-04T01:56:08.996Z,97381.41
2018-12-04T01:58:43.050Z,97380.22
2018-12-04T02:01:15.453Z,97392.47
2018-12-04T02:03:50.320Z,97388.20
2018-12-04T02:06:23.997Z,97386.19
2018-12-04T02:11:29.322Z,97397.13
2018-12-04T02:14:01.878Z,97402.37
2018-12-04T02:16:33.753Z,97395.81
2018-12-04T02:19:07.250Z,97405.38
2018-12-04T02:24:13.579Z,97407.73
2018-12-04T02:26:46.165Z,97403.37
2018-12-04T02:29:18.799Z,97403.80
2018-12-04T02:31:51.323Z,97406.75
2018-12-04T02:34:25.980Z,97414.44
2018-12-04T02:36:59.756Z,97417.97
2018-12-04T02:42:05.542Z,97434.48
2018-12-04T02:44:38.341Z,97438.47
2018-12-04T02:47:10.070Z,97441.63
2018-12-04T02:49:42.658Z,97443.91
2018-12-04T02:52:17.192Z,97446.53
2018-12-04T02:57:21.914Z,97459.62
2018-12-04T02:59:53.787Z,97460.94
2018-12-04T03:02:26.565Z,97467.89
2018-12-04T03:05:00.751Z,97485.44
2018-12-04T03:10:06.573Z,97495.92
2018-12-04T03:12:39.140Z,97515.17
2018-12-04T03:15:10.984Z,97509.61
2018-12-04T03:17:45.493Z,97521.63
2018-12-04T03:22:54.499Z,97536.69
2018-12-04T03:25:28.271Z,97546.82
2018-12-04T03:29:15.165Z,97559.23
2018-12-04T03:31:48.282Z,97567.59
2018-12-04T03:34:21.353Z,97570.63
2018-12-04T03:36:57.136Z,97574.95
2018-12-04T03:39:28.596Z,97587.94
2018-12-04T03:42:03.770Z,97590.96
2018-12-04T03:44:36.935Z,97593.58
2018-12-04T03:47:09.830Z,97597.16
2018-12-04T03:49:43.510Z,97600.23
2018-12-04T03:52:14.888Z,97601.64
2018-12-04T03:54:48.202Z,97618.66
2018-12-04T03:57:19.489Z,97628.63
2018-12-04T03:59:52.584Z,97635.30
2018-12-04T04:02:23.779Z,97647.18
2018-12-04T04:04:54.402Z,97655.59
2018-12-04T04:07:27.458Z,97661.34
2018-12-04T04:09:58.680Z,97671.92
2018-12-04T04:12:32.017Z,97679.44
2018-12-04T04:15:03.488Z,97691.06
2018-12-04T04:17:34.311Z,97696.05
2018-12-04T04:20:07.878Z,97712.90
2018-12-04T04:22:41.844Z,97718.69
2018-12-04T04:25:15.072Z,97727.99
2018-12-04T04:27:48.788Z,97742.92
2018-12-04T04:30:19.909Z,97748.34
2018-12-04T04:32:56.187Z,97760.73
2018-12-04T04:35:27.578Z,97773.59
2018-12-04T04:38:06.374Z,97789.17
2018-12-04T04:40:46.058Z,97793.66
2018-12-04T04:43:25.054Z,97804.04
2018-12-04T04:46:08.580Z,97818.65
2018-12-04T04:48:50.616Z,97836.34
2018-12-04T04:51:29.293Z,97848.28
2018-12-04T04:54:09.052Z,97862.76
2018-12-04T04:56:47.792Z,97872.03
2018-12-04T04:59:26.757Z,97882.93
2018-12-04T05:02:05.599Z,97886.02
2018-12-04T05:04:47.222Z,97890.01
2018-12-04T05:07:25.283Z,97895.67
2018-12-04T05:10:05.575Z,97909.17
2018-12-04T05:12:46.399Z,97909.24
2018-12-04T05:15:25.580Z,97912.68
2018-12-04T05:18:03.695Z,97917.88
2018-12-04T05:20:43.080Z,97919.23
2018-12-04T05:23:22.915Z,97927.90
2018-12-04T05:26:00.450Z,97934.55
2018-12-04T05:28:38.265Z,97934.52
2018-12-04T05:31:17.992Z,97939.81
2018-12-04T05:33:56.729Z,97948.56
2018-12-04T05:36:36.351Z,97946.05
2018-12-04T05:39:16.111Z,97955.56
2018-12-04T05:41:55.781Z,97953.88
2018-12-04T05:44:35.439Z,97956.48
2018-12-04T05:47:15.025Z,97965.59
2018-12-04T05:49:54.284Z,97966.45
2018-12-04T05:52:34.162Z,97975.59
2018-12-04T05:55:14.096Z,97981.28
2018-12-04T05:57:54.111Z,97984.81
2018-12-04T06:00:33.936Z,97993.09
2018-12-04T06:03:14.246Z,98000.00
2018-12-04T06:05:54.372Z,98011.75
2018-12-04T06:08:33.818Z,98023.44
2018-12-04T06:11:13.689Z,98016.11
2018-12-04T06:13:54.193Z,98023.49
2018-12-04T06:16:33.780Z,98036.55
2018-12-04T06:19:13.695Z,98049.20
2018-12-04T06:21:53.743Z,98061.81
2018-12-04T06:24:33.300Z,98068.86
2018-12-04T06:27:12.554Z,98075.91
2018-12-04T06:32:23.950Z,98083.93
2018-12-04T06:35:04.977Z,98091.41
2018-12-04T06:37:45.118Z,98108.89
2018-12-04T06:40:24.485Z,98114.58
2018-12-04T06:43:04.929Z,98122.03
2018-12-04T06:45:44.444Z,98130.28
2018-12-04T06:48:24.258Z,98135.97
2018-12-04T06:51:05.029Z,98140.72
2018-12-04T06:53:44.152Z,98156.37
2018-12-04T06:56:24.086Z,98159.02
2018-12-04T06:59:04.800Z,98171.18
2018-12-04T07:01:44.854Z,98179.44
2018-12-04T07:04:24.498Z,98186.41
2018-12-04T07:07:03.392Z,98189.00
2018-12-04T07:09:43.078Z,98193.36
2018-12-04T07:12:22.327Z,98199.88
2018-12-04T07:15:03.077Z,98209.88
2018-12-04T07:17:43.607Z,98215.95
2018-12-04T07:20:23.293Z,98221.62
2018-12-04T07:23:03.134Z,98223.39
2018-12-04T07:25:42.914Z,98236.44
2018-12-04T07:28:23.711Z,98239.02
2018-12-04T07:31:03.733Z,98255.06
2018-12-04T07:33:43.664Z,98250.31
2018-12-04T07:36:25.047Z,98257.30
2018-12-04T07:41:48.254Z,98269.93
2018-12-04T07:44:28.088Z,98278.20
2018-12-04T07:47:08.969Z,98286.48
2018-12-04T07:49:48.912Z,98305.19
2018-12-04T07:52:28.249Z,98299.94
2018-12-04T07:55:08.497Z,98311.67
2018-12-04T07:57:48.365Z,98313.42
2018-12-04T08:00:27.929Z,98323.39
2018-12-04T08:03:08.605Z,98327.74
2018-12-04T08:05:49.499Z,98329.88
2018-12-04T08:08:29.371Z,98342.44
2018-12-04T08:11:09.457Z,98338.09
2018-12-04T08:13:49.525Z,98344.11
2018-12-04T08:16:30.053Z,98352.81
2018-12-04T08:19:11.787Z,98358.89
2018-12-04T08:21:52.284Z,98373.24
2018-12-04T08:24:31.977Z,98377.13
2018-12-04T08:27:12.206Z,98389.73
2018-12-04T08:29:52.261Z,98400.59
2018-12-04T08:32:33.828Z,98400.14
2018-12-04T08:35:14.523Z,98395.80
2018-12-04T08:38:02.446Z,98404.48
2018-12-04T08:40:42.710Z,98406.65
2018-12-04T08:43:22.652Z,98413.17
2018-12-04T08:46:03.347Z,98413.58
2018-12-04T08:48:44.114Z,98431.40
2018-12-04T08:51:24.738Z,98440.97
2018-12-04T08:54:04.003Z,98450.04
2018-12-04T08:56:45.128Z,98450.92
2018-12-04T08:59:25.714Z,98458.27
2018-12-04T09:02:06.725Z,98469.98
2018-12-04T09:04:46.942Z,98473.42
2018-12-04T09:07:30.872Z,98479.45
2018-12-04T09:10:12.888Z,98485.10
2018-12-04T09:12:54.287Z,98489.90
2018-12-04T09:15:35.927Z,98491.20
2018-12-04T09:18:17.764Z,98502.11
2018-12-04T09:20:58.733Z,98502.56
2018-12-04T09:23:39.721Z,98514.31
2018-12-04T09:26:20.829Z,98523.41
2018-12-04T09:29:02.310Z,98523.86
2018-12-04T09:31:43.961Z,98525.14
2018-12-04T09:34:29.804Z,98535.13
2018-12-04T09:37:09.741Z,98541.17
2018-12-04T09:39:50.514Z,98554.22
2018-12-04T09:42:35.273Z,98554.62
2018-12-04T09:45:16.613Z,98563.69
2018-12-04T09:47:58.559Z,98558.57
2018-12-04T09:50:39.665Z,98566.81
2018-12-04T09:53:25.088Z,98569.00
2018-12-04T09:56:03.146Z,98576.76
2018-12-04T09:58:43.982Z,98580.06
2018-12-04T10:01:24.814Z,98578.97
2018-12-04T10:04:05.064Z,98580.78
2018-12-04T10:06:44.825Z,98578.41
2018-12-04T10:09:25.416Z,98578.91
2018-12-04T10:12:06.665Z,98585.58
2018-12-04T10:14:47.730Z,98578.23
2018-12-04T10:17:28.966Z,98586.30
2018-12-04T10:20:09.277Z,98587.19
2018-12-04T10:22:51.580Z,98601.78
2018-12-04T10:25:32.153Z,98597.61
2018-12-04T10:28:12.910Z,98597.80
2018-12-04T10:30:58.845Z,98603.69
2018-12-04T10:33:42.563Z,98606.22
2018-12-04T10:36:23.256Z,98596.33
2018-12-04T10:39:03.957Z,98606.94
2018-12-04T10:41:44.297Z,98606.30
2018-12-04T10:44:26.729Z,98607.86
2018-12-04T10:47:07.406Z,98613.10
2018-12-04T10:49:48.070Z,98617.38
2018-12-04T10:52:30.491Z,98625.73
2018-12-04T10:55:13.292Z,98632.48
2018-12-04T10:57:55.705Z,98631.14
2018-12-04T11:00:43.728Z,98647.44
2018-12-04T11:03:39.786Z,98643.16
2018-12-04T11:06:20.194Z,98653.66
2018-12-04T11:09:02.053Z,98656.45
2018-12-04T11:14:37.532Z,98665.94
2018-12-04T11:17:18.024Z,98660.54
2018-12-04T11:19:58.313Z,98664.77
2018-12-04T11:22:38.125Z,98666.36
2018-12-04T11:25:18.263Z,98678.13
2018-12-04T11:27:59.530Z,98675.75
2018-12-04T11:30:39.792Z,98680.23
2018-12-04T11:33:19.902Z,98684.34
2018-12-04T11:36:00.918Z,98687.48
2018-12-04T11:38:42.468Z,98698.03
2018-12-04T11:46:24.842Z,98698.18
2018-12-04T11:49:05.217Z,98709.97
2018-12-04T11:51:45.814Z,98713.50
2018-12-04T11:54:27.115Z,98721.34
2018-12-04T11:57:08.380Z,98727.50
2018-12-04T11:59:48.333Z,98733.16
2018-12-04T12:02:29.608Z,98743.58
2018-12-04T12:05:09.621Z,98747.45
2018-12-04T12:07:50.091Z,98737.39
2018-12-04T12:10:30.792Z,98738.68
2018-12-04T12:13:10.410Z,98736.49
2018-12-04T12:15:50.077Z,98749.53
2018-12-04T12:18:30.482Z,98751.68
2018-12-04T12:21:10.589Z,98757.77
2018-12-04T12:23:51.111Z,98754.73
2018-12-04T12:26:31.552Z,98763.89
2018-12-04T12:29:12.312Z,98758.20
2018-12-04T12:31:52.784Z,98756.89
2018-12-04T12:34:32.911Z,98760.78
2018-12-04T12:37:13.836Z,98776.95
2018-12-04T12:39:54.911Z,98767.80
2018-12-04T12:42:35.528Z,98777.38
2018-12-04T12:45:17.246Z,98777.84
2018-12-04T12:47:59.335Z,98780.44
2018-12-04T12:50:40.227Z,98789.13
2018-12-04T12:53:21.694Z,98790.44
2018-12-04T12:56:02.924Z,98790.84
2018-12-04T12:58:44.409Z,98800.39
2018-12-04T13:01:25.031Z,98812.13
2018-12-04T13:04:05.675Z,98813.88
2018-12-04T13:06:47.562Z,98823.02
2018-12-04T13:09:29.448Z,98820.88
2018-12-04T13:12:10.833Z,98826.98
2018-12-04T13:14:52.474Z,98824.38
2018-12-04T13:17:33.987Z,98827.45
2018-12-04T13:20:15.046Z,98835.32
2018-12-04T13:22:56.576Z,98839.73
2018-12-04T13:25:39.356Z,98837.55
2018-12-04T13:28:22.003Z,98853.70
2018-12-04T13:31:03.150Z,98852.40
2018-12-04T13:33:43.691Z,98851.09
2018-12-04T13:36:25.497Z,98854.16
2018-12-04T13:39:07.004Z,98865.03
2018-12-04T13:41:48.201Z,98865.45
2018-12-04T13:44:30.135Z,98867.17
2018-12-04T13:47:11.615Z,98864.12
2018-12-04T13:54:58.495Z,98881.11
2018-12-04T13:57:39.441Z,98887.63
2018-12-04T14:00:19.598Z,98893.73
2018-12-04T14:03:00.243Z,98897.22
2018-12-04T14:05:39.221Z,98903.30
2018-12-04T14:08:19.928Z,98910.72
2018-12-04T14:11:00.488Z,98930.27
2018-12-04T14:13:40.713Z,98930.17
2018-12-04T14:16:20.480Z,98933.17
2018-12-04T14:19:02.145Z,98939.69
2018-12-04T14:21:42.941Z,98942.27
2018-12-04T14:24:23.555Z,98949.63
2018-12-04T14:27:03.550Z,98958.71
2018-12-04T14:29:48.021Z,98962.58
2018-12-04T14:32:29.016Z,98959.06
2018-12-04T14:35:09.845Z,98958.59
2018-12-04T14:37:50.802Z,98968.97
2018-12-04T14:40:31.028Z,98973.30
2018-12-04T14:43:12.322Z,98974.17
2018-12-04T14:45:52.740Z,98975.47
2018-12-04T14:48:32.987Z,98985.42
2018-12-04T14:51:13.579Z,98985.80
2018-12-04T14:53:54.255Z,98986.22
2018-12-04T15:01:38.080Z,99004.40
2018-12-04T15:04:18.194Z,99006.12
2018-12-04T15:06:58.843Z,99010.02
2018-12-04T15:09:39.777Z,99013.02
2018-12-04T15:12:20.193Z,99027.27
2018-12-04T15:15:01.066Z,99029.79
2018-12-04T15:17:41.904Z,99038.83
2018-12-04T15:20:22.389Z,99031.82
2018-12-04T15:23:04.933Z,99044.76
2018-12-04T15:25:45.526Z,99059.87
2018-12-04T15:28:26.105Z,99071.55
2018-12-04T15:31:06.846Z,99082.38
2018-12-04T15:33:46.927Z,99091.48
2018-12-04T15:36:26.008Z,99090.98
2018-12-04T15:39:06.680Z,99087.52
2018-12-04T15:41:47.170Z,99097.03
2018-12-04T15:44:27.572Z,99096.50
2018-12-04T15:47:09.025Z,99108.58
2018-12-04T15:49:49.185Z,99113.25
2018-12-04T15:52:29.873Z,99112.34
2018-12-04T15:55:09.700Z,99113.13
2018-12-04T15:57:50.823Z,99116.13
2018-12-04T16:00:31.214Z,99119.53
2018-12-04T16:03:10.584Z,99112.47
2018-12-04T16:05:50.710Z,99127.55
2018-12-04T16:08:31.363Z,99126.21
2018-12-04T16:11:11.133Z,99132.17
2018-12-04T16:13:51.313Z,99138.11
2018-12-04T16:16:31.058Z,99143.64
2018-12-04T16:19:11.262Z,99150.94
2018-12-04T16:21:51.190Z,99166.88
2018-12-04T16:24:30.969Z,99174.11
2018-12-04T16:27:11.418Z,99177.02
2018-12-04T16:29:51.419Z,99180.86
2018-12-04T16:32:32.043Z,99182.16
2018-12-04T16:35:14.041Z,99184.28
2018-12-04T16:37:54.711Z,99191.67
2018-12-04T16:40:35.178Z,99190.06
2018-12-04T16:43:17.859Z,99187.23
2018-12-04T16:45:57.367Z,99189.84
2018-12-04T16:48:41.319Z,99195.89
2018-12-04T16:51:20.831Z,99195.00
2018-12-04T16:54:01.321Z,99200.16
2018-12-04T16:56:41.676Z,99197.94
2018-12-04T16:59:27.923Z,99205.26
2018-12-04T17:02:07.513Z,99218.11
2018-12-04T17:04:48.236Z,99222.30
2018-12-04T17:10:40.103Z,99237.00
2018-12-04T17:13:25.772Z,99233.66
2018-12-04T17:16:05.062Z,99241.34
2018-12-04T17:18:46.152Z,99241.28
2018-12-04T17:21:25.181Z,99244.65
2018-12-04T17:24:05.735Z,99246.23
2018-12-04T17:26:45.826Z,99242.28
2018-12-04T17:29:26.294Z,99252.86
2018-12-04T17:32:06.184Z,99259.52
2018-12-04T17:34:46.148Z,99258.30
2018-12-04T17:37:26.654Z,99269.10
2018-12-04T17:40:07.551Z,99276.27
2018-12-04T17:42:50.345Z,99278.80
2018-12-04T17:45:31.166Z,99287.30
2018-12-04T17:48:13.147Z,99280.37
2018-12-04T17:50:56.053Z,99283.35
2018-12-04T17:53:35.704Z,99283.17
2018-12-04T17:56:15.183Z,99288.48
2018-12-04T17:59:01.214Z,99303.20
2018-12-04T18:01:40.868Z,99305.43
2018-12-04T18:04:19.057Z,99309.31
2018-12-04T18:06:57.879Z,99308.15
2018-12-04T18:09:38.243Z,99316.92
2018-12-04T18:12:17.651Z,99305.72
2018-12-04T18:14:58.164Z,99309.22
2018-12-04T18:17:39.412Z,99308.31
2018-12-04T18:20:19.804Z,99315.08
2018-12-04T18:23:00.227Z,99318.55
2018-12-04T18:25:44.061Z,99322.47
2018-12-04T18:28:24.661Z,99322.11
2018-12-04T18:31:05.135Z,99333.38
2018-12-04T18:33:44.789Z,99335.94
2018-12-04T18:36:23.936Z,99339.92
2018-12-04T18:39:04.764Z,99342.06
2018-12-04T18:41:44.537Z,99351.77
2018-12-04T18:44:23.821Z,99351.73
2018-12-04T18:47:03.324Z,99351.80
2018-12-04T18:49:43.929Z,99351.80
2018-12-04T18:52:23.931Z,99364.41
2018-12-04T18:55:04.194Z,99361.75
2018-12-04T18:57:44.576Z,99363.47
2018-12-04T19:00:24.540Z,99363.43
2018-12-04T19:03:03.629Z,99358.18
2018-12-04T19:05:40.748Z,99362.06
2018-12-04T19:08:24.549Z,99362.39
2018-12-04T19:11:03.041Z,99356.30
2018-12-04T19:13:42.904Z,99361.77
2018-12-04T19:16:21.837Z,99364.25
2018-12-04T19:19:02.639Z,99367.05
2018-12-04T19:21:41.774Z,99371.22
2018-12-04T19:24:21.777Z,99369.88
2018-12-04T19:27:02.547Z,99377.58
2018-12-04T19:29:44.573Z,99380.70
2018-12-04T19:32:22.556Z,99384.13
2018-12-04T19:34:55.782Z,99387.94
2018-12-04T19:37:41.235Z,99378.69
2018-12-04T19:40:14.689Z,99383.98
2018-12-04T19:42:48.246Z,99390.98
2018-12-04T19:45:21.948Z,99386.75
2018-12-04T19:47:59.681Z,99383.39
2018-12-04T19:50:35.915Z,99386.92
2018-12-04T19:53:07.244Z,99392.25
2018-12-04T19:55:40.763Z,99393.78
2018-12-04T19:58:13.347Z,99401.10
2018-12-04T20:00:45.192Z,99406.73
2018-12-04T20:03:20.511Z,99405.80
2018-12-04T20:05:54.729Z,99413.08
2018-12-04T20:08:32.411Z,99412.58
2018-12-04T20:11:06.446Z,99417.13
2018-12-04T20:13:40.032Z,99426.92
2018-12-04T20:16:14.001Z,99432.87
2018-12-04T20:18:45.145Z,99439.16
2018-12-04T20:21:18.318Z,99442.96
2018-12-04T20:23:51.819Z,99443.23
2018-12-04T20:26:30.041Z,99448.52
2018-12-04T20:29:01.633Z,99451.98
2018-12-04T20:31:35.495Z,99456.36
2018-12-04T20:34:11.738Z,99460.78
2018-12-04T20:36:44.402Z,99467.18
2018-12-04T20:39:17.798Z,99468.24
2018-12-04T20:41:49.709Z,99479.89
2018-12-04T20:44:21.513Z,99479.20
2018-12-04T20:46:55.057Z,99484.56
2018-12-04T20:49:26.324Z,99491.79
2018-12-04T20:52:10.865Z,99488.95
2018-12-04T20:54:43.065Z,99488.64
2018-12-04T20:57:17.396Z,99496.97
2018-12-04T20:59:50.646Z,99498.44
2018-12-04T21:02:22.195Z,99501.12
2018-12-04T21:04:56.765Z,99506.71
2018-12-04T21:07:32.394Z,99502.75
2018-12-04T21:10:05.011Z,99496.32
2018-12-04T21:12:36.740Z,99501.53
2018-12-04T21:15:14.079Z,99498.91
2018-12-04T21:17:47.809Z,99502.28
2018-12-04T21:20:24.355Z,99501.25
2018-12-04T21:23:02.288Z,99505.50
2018-12-04T21:25:35.902Z,99515.77
2018-12-04T21:28:20.631Z,99515.77
2018-12-04T21:31:06.561Z,99516.14
2018-12-04T21:33:44.370Z,99517.69
2018-12-04T21:36:28.474Z,99519.86
2018-12-04T21:39:14.795Z,99519.77
2018-12-04T21:41:52.314Z,99513.34
2018-12-04T21:44:31.192Z,99526.91
2018-12-04T21:47:12.235Z,99523.86
2018-12-04T21:49:45.588Z,99533.33
2018-12-04T21:52:17.302Z,99538.05
2018-12-04T21:54:50.482Z,99536.00
2018-12-04T21:57:21.975Z,99534.03
2018-12-04T21:59:53.077Z,99539.52
2018-12-04T22:02:26.319Z,99546.72
2018-12-04T22:05:00.154Z,99548.27
2018-12-04T22:07:31.749Z,99549.47
2018-12-04T22:10:02.866Z,99557.28
2018-12-04T22:12:33.945Z,99560.53
2018-12-04T22:15:07.490Z,99567.83
2018-12-04T22:17:40.975Z,99567.37
2018-12-04T22:20:12.331Z,99566.20
2018-12-04T22:22:45.766Z,99564.49
2018-12-04T22:25:19.480Z,99572.02
2018-12-04T22:27:51.127Z,99573.84
2018-12-04T22:30:24.334Z,99566.73
2018-12-04T22:32:56.161Z,99559.67
2018-12-04T22:35:27.651Z,99568.27
2018-12-04T22:38:01.074Z,99573.16
2018-12-04T22:40:32.409Z,99567.73
2018-12-04T22:43:06.013Z,99567.41
2018-12-04T22:45:37.385Z,99571.30
2018-12-04T22:48:14.822Z,99570.88
2018-12-04T22:50:47.891Z,99572.55
2018-12-04T22:53:19.287Z,99569.73
2018-12-04T22:55:52.664Z,99558.69
2018-12-04T22:58:23.978Z,99555.85
2018-12-04T23:00:57.419Z,99550.72
2018-12-04T23:03:28.665Z,99560.91
2018-12-04T23:06:02.782Z,99556.47
2018-12-04T23:08:37.985Z,99555.34
2018-12-04T23:11:11.353Z,99559.37
2018-12-04T23:13:42.029Z,99562.56
2018-12-04T23:16:15.354Z,99567.98
2018-12-04T23:18:46.895Z,99571.12
2018-12-04T23:21:17.832Z,99577.77
2018-12-04T23:23:51.139Z,99582.80
2018-12-04T23:26:24.222Z,99584.78
2018-12-04T23:28:55.551Z,99579.57
2018-12-04T23:31:28.700Z,99591.30
2018-12-04T23:34:00.109Z,99590.00
2018-12-04T23:36:33.098Z,99584.97
2018-12-04T23:39:07.341Z,99595.77
2018-12-04T23:41:42.221Z,99597.98
2018-12-04T23:44:20.205Z,99582.02
2018-12-04T23:46:53.321Z,99575.19
2018-12-04T23:49:27.163Z,99578.60
2018-12-04T23:51:58.610Z,99578.60
2018-12-04T23:54:32.005Z,99579.53
2018-12-04T23:57:03.145Z,99578.50
2018-12-04T23:59:36.326Z,99574.17
